Time;durP1;ratioP1;P1;durP2;ratioP2;P2;SDS_P1;SDS_P2;PMS_P1;PMS_P2;Temp;Humidity;BMP_temperature;BMP_pressure;BME280_temperature;BME280_humidity;BME280_pressure;Samples;Min_cycle;Max_cycle;Signal;HPM_P1;HPM_P2
2023/04/11 00:07:58;;;;;;;3.25;1.40;;;19.20;36.50;;;;;;20841240;28;20410;-56
2023/04/11 00:17:59;;;;;;;6.22;1.55;;;19.00;36.90;;;;;;20839839;28;20065;-56
2023/04/11 00:28:01;;;;;;;2.67;1.30;;;19.00;37.10;;;;;;20839953;28;20088;-55
2023/04/11 00:38:03;;;;;;;4.68;1.55;;;19.10;36.70;;;;;;20837722;28;20053;-56
2023/04/11 00:48:05;;;;;;;4.53;2.00;;;18.80;37.40;;;;;;20838564;28;20471;-57
2023/04/11 00:58:07;;;;;;;4.53;2.00;;;18.70;37.70;;;;;;20837517;28;20107;-55
2023/04/11 01:08:09;;;;;;;3.53;2.17;;;18.70;37.80;;;;;;20836672;28;20046;-55
2023/04/11 01:18:11;;;;;;;5.82;2.40;;;18.70;37.90;;;;;;20835186;28;20085;-55
2023/04/11 01:28:13;;;;;;;6.25;2.60;;;18.70;38.10;;;;;;20835155;28;20482;-56
2023/04/11 01:38:14;;;;;;;5.30;2.55;;;18.70;38.20;;;;;;20834779;28;20041;-56
2023/04/11 01:48:16;;;;;;;5.32;2.83;;;18.60;38.50;;;;;;20831672;28;20053;-56
2023/04/11 01:58:17;;;;;;;4.95;2.67;;;18.40;39.10;;;;;;20833331;28;20512;-56
2023/04/11 02:08:19;;;;;;;4.95;2.00;;;18.30;39.60;;;;;;20832441;28;20077;-56
2023/04/11 02:18:20;;;;;;;5.47;1.80;;;18.10;40.30;;;;;;20831274;28;20523;-56
2023/04/11 02:28:22;;;;;;;4.22;1.80;;;17.90;41.00;;;;;;20830490;28;20084;-56
2023/04/11 02:38:23;;;;;;;5.05;1.70;;;17.70;41.70;;;;;;20831020;28;20056;-56
2023/04/11 02:48:24;;;;;;;6.03;2.30;;;17.50;42.40;;;;;;20830860;28;20383;-55
2023/04/11 02:58:27;;;;;;;3.53;1.40;;;17.10;42.20;;;;;;20832937;28;20483;-56
2023/04/11 03:08:29;;;;;;;4.17;1.50;;;16.80;42.40;;;;;;20846396;28;20049;-55
2023/04/11 03:18:30;;;;;;;6.18;1.70;;;16.70;42.40;;;;;;20844844;28;20076;-55
2023/04/11 03:28:32;;;;;;;3.97;1.58;;;16.30;42.70;;;;;;20844780;28;20053;-56
2023/04/11 03:38:33;;;;;;;5.05;1.90;;;15.90;43.60;;;;;;20843955;28;20383;-55
2023/04/11 03:48:35;;;;;;;6.68;2.20;;;15.50;44.30;;;;;;20841923;28;20049;-55
2023/04/11 03:58:36;;;;;;;5.75;2.60;;;15.50;44.40;;;;;;20842284;28;20060;-55
2023/04/11 04:08:38;;;;;;;5.85;2.40;;;15.70;44.40;;;;;;20840058;28;20042;-55
2023/04/11 04:18:39;;;;;;;17.85;3.28;;;15.60;44.70;;;;;;20839539;28;20049;-55
2023/04/11 04:28:45;;;;;;;12.57;2.10;;;15.50;45.10;;;;;;20840109;28;20045;-56
2023/04/11 04:38:47;;;;;;;3.83;1.70;;;15.20;45.60;;;;;;20838028;28;20057;-55
2023/04/11 04:48:49;;;;;;;9.05;2.80;;;15.00;46.30;;;;;;20838304;28;20054;-55
2023/04/11 04:58:50;;;;;;;3.28;1.48;;;14.70;46.70;;;;;;20837412;28;20414;-56
2023/04/11 05:08:52;;;;;;;14.65;2.67;;;14.70;46.70;;;;;;20836686;28;20454;-56
2023/04/11 05:18:53;;;;;;;5.88;1.90;;;14.60;46.40;;;;;;20836593;28;20383;-55
2023/04/11 05:28:54;;;;;;;4.63;2.17;;;14.40;46.70;;;;;;20834256;28;20513;-56
2023/04/11 05:38:56;;;;;;;7.22;1.98;;;14.40;47.00;;;;;;20834422;28;20052;-57
2023/04/11 05:48:59;;;;;;;11.13;5.40;;;14.20;47.40;;;;;;20833778;28;20473;-54
2023/04/11 05:59:02;;;;;;;8.75;3.08;;;14.20;47.30;;;;;;20832508;28;20123;-55
2023/04/11 06:09:04;;;;;;;7.78;2.53;;;14.20;47.00;;;;;;20830632;28;20077;-56
2023/04/11 06:19:05;;;;;;;7.53;4.25;;;14.20;47.20;;;;;;20830281;28;20053;-54
2023/04/11 06:29:06;;;;;;;5.97;2.40;;;14.30;47.70;;;;;;20829908;28;20046;-56
2023/04/11 06:39:08;;;;;;;7.78;2.00;;;14.30;47.80;;;;;;20828816;28;20133;-55
2023/04/11 06:49:10;;;;;;;10.70;3.63;;;14.20;47.50;;;;;;20828980;28;20073;-54
2023/04/11 06:59:12;;;;;;;14.13;5.38;;;14.50;47.20;;;;;;20828900;28;20486;-55
2023/04/11 07:09:13;;;;;;;13.38;3.05;;;14.70;47.20;;;;;;20829267;28;20049;-55
2023/04/11 07:19:15;;;;;;;13.75;5.07;;;15.20;46.40;;;;;;20829732;28;20415;-56
2023/04/11 07:29:16;;;;;;;10.65;3.67;;;15.70;45.60;;;;;;20828364;28;20046;-54
2023/04/11 07:39:18;;;;;;;10.35;4.05;;;15.80;44.70;;;;;;20828801;28;20176;-55
2023/04/11 07:49:19;;;;;;;15.13;4.43;;;16.40;42.70;;;;;;20834626;28;20053;-55
2023/04/11 07:59:20;;;;;;;8.98;2.90;;;17.00;42.10;;;;;;20842026;28;20049;-55
2023/04/11 08:09:22;;;;;;;8.30;3.03;;;17.50;39.90;;;;;;20841197;28;20053;-56
2023/04/11 08:19:23;;;;;;;10.93;3.30;;;17.90;39.10;;;;;;20839648;28;20057;-56
2023/04/11 08:29:25;;;;;;;13.38;3.72;;;18.10;38.70;;;;;;20839896;28;20050;-57
2023/04/11 08:39:26;;;;;;;12.98;3.03;;;18.60;38.20;;;;;;20836580;28;20080;-56
2023/04/11 08:49:27;;;;;;;12.25;3.20;;;18.80;38.70;;;;;;20836644;28;20057;-57
2023/04/11 08:59:29;;;;;;;6.47;2.45;;;19.20;37.80;;;;;;20833984;28;20057;-59
2023/04/11 09:09:30;;;;;;;15.10;3.22;;;19.40;37.30;;;;;;20835907;28;20045;-59
2023/04/11 09:19:33;;;;;;;10.93;2.92;;;19.60;37.10;;;;;;20834526;28;20423;-58
2023/04/11 09:29:36;;;;;;;8.53;2.03;;;19.90;36.70;;;;;;20833600;28;20053;-57
2023/04/11 09:39:38;;;;;;;10.10;2.60;;;20.20;36.70;;;;;;20833640;28;20379;-56
2023/04/11 09:49:41;;;;;;;7.43;2.65;;;20.40;38.10;;;;;;20833030;28;20283;-58
2023/04/11 09:59:44;;;;;;;8.10;3.03;;;20.40;37.70;;;;;;20832396;28;20050;-57
2023/04/11 10:09:46;;;;;;;7.97;3.43;;;20.60;36.30;;;;;;20831220;28;20050;-56
2023/04/11 10:19:50;;;;;;;8.80;2.33;;;20.80;35.80;;;;;;20830112;28;20053;-55
2023/04/11 10:29:51;;;;;;;7.93;2.10;;;21.00;35.30;;;;;;20831017;28;20107;-56
2023/04/11 10:39:53;;;;;;;10.63;2.30;;;21.40;33.00;;;;;;20830441;28;20050;-56
2023/04/11 10:49:55;;;;;;;9.32;4.07;;;21.40;33.20;;;;;;20830404;28;20475;-56
2023/04/11 10:59:57;;;;;;;5.38;2.55;;;21.90;32.40;;;;;;20829587;28;20498;-56
2023/04/11 11:09:58;;;;;;;8.43;2.55;;;22.30;31.20;;;;;;20828932;28;20095;-56
2023/04/11 11:20:00;;;;;;;7.30;2.85;;;22.40;30.90;;;;;;20830627;28;20052;-55
2023/04/11 11:30:11;;;;;;;8.90;2.60;;;22.90;30.20;;;;;;20843856;28;20050;-57
2023/04/11 11:40:13;;;;;;;11.80;3.90;;;22.80;29.70;;;;;;20841192;28;20085;-57
2023/04/11 11:50:25;;;;;;;8.73;2.42;;;23.00;29.00;;;;;;20842735;28;20045;-58
2023/04/11 12:00:28;;;;;;;11.03;2.73;;;23.30;28.70;;;;;;20840382;28;20045;-57
2023/04/11 12:10:41;;;;;;;7.72;2.10;;;23.50;28.40;;;;;;20840901;28;20378;-57
2023/04/11 12:20:42;;;;;;;;;;;23.80;28.10;;;;;;20840061;28;20049;-58
2023/04/11 12:30:44;;;;;;;8.10;2.50;;;23.70;28.00;;;;;;20837593;28;20020;-57
2023/04/11 12:40:45;;;;;;;11.77;2.40;;;24.10;27.60;;;;;;20838355;28;20089;-57
2023/04/11 12:50:47;;;;;;;11.43;3.07;;;24.20;27.20;;;;;;20837874;28;20068;-57
2023/04/11 13:00:48;;;;;;;7.00;2.50;;;24.30;26.90;;;;;;20836613;28;20100;-58
2023/04/11 13:10:49;;;;;;;6.27;2.00;;;24.60;26.90;;;;;;20836218;28;20418;-57
2023/04/11 13:20:51;;;;;;;8.57;2.00;;;24.70;26.80;;;;;;20834103;28;20272;-60
2023/04/11 13:30:53;;;;;;;10.03;2.23;;;24.80;26.70;;;;;;20833016;28;20045;-56
2023/04/11 13:40:55;;;;;;;9.27;2.15;;;25.00;26.90;;;;;;20833963;28;20049;-57
2023/04/11 13:50:56;;;;;;;5.90;2.37;;;25.10;26.20;;;;;;20832000;28;20072;-59
2023/04/11 14:00:58;;;;;;;4.90;2.10;;;25.20;26.20;;;;;;20832070;28;20487;-58
2023/04/11 14:11:00;;;;;;;6.22;3.47;;;25.40;24.60;;;;;;20823861;28;20049;-59
2023/04/11 14:21:02;;;;;;;5.13;1.73;;;25.60;25.00;;;;;;20830506;28;20061;-59
2023/04/11 14:31:04;;;;;;;8.50;2.72;;;25.60;25.70;;;;;;20831386;28;20077;-58
2023/04/11 14:41:05;;;;;;;6.05;2.22;;;25.60;25.20;;;;;;20830884;28;20136;-59
2023/04/11 14:51:07;;;;;;;4.40;2.38;;;25.70;23.80;;;;;;20830740;28;20053;-58
2023/04/11 15:01:09;;;;;;;3.35;1.50;;;25.60;22.60;;;;;;20843362;28;20072;-59
2023/04/11 15:11:10;;;;;;;3.13;1.30;;;25.70;21.40;;;;;;20846360;28;20469;-59
2023/04/11 15:21:11;;;;;;;3.80;1.30;;;25.70;21.20;;;;;;20844165;28;20065;-59
2023/04/11 15:31:13;;;;;;;5.83;1.83;;;25.70;20.90;;;;;;20844274;28;20049;-57
2023/04/11 15:41:15;;;;;;;7.13;4.38;;;25.70;22.20;;;;;;20842266;28;20081;-57
2023/04/11 15:51:16;;;;;;;3.37;1.40;;;26.00;21.60;;;;;;20841570;28;20054;-57
2023/04/11 16:01:24;;;;;;;3.37;1.17;;;26.00;21.10;;;;;;20840004;28;20048;-56
2023/04/11 16:11:25;;;;;;;3.58;1.33;;;25.90;20.50;;;;;;20838986;28;20053;-56
2023/04/11 16:21:27;;;;;;;4.40;1.63;;;25.90;20.40;;;;;;20838958;28;20052;-56
2023/04/11 16:31:30;;;;;;;6.60;2.10;;;25.80;23.30;;;;;;20838514;28;20049;-56
2023/04/11 16:41:35;;;;;;;2.67;1.25;;;25.80;24.90;;;;;;20838232;28;20049;-56
2023/04/11 16:51:36;;;;;;;6.60;2.55;;;25.70;25.40;;;;;;20821658;28;20042;-57
2023/04/11 17:01:39;;;;;;;5.40;2.37;;;25.60;24.80;;;;;;20834908;28;20057;-60
2023/04/11 17:11:40;;;;;;;6.65;2.20;;;25.50;24.00;;;;;;20836159;28;20470;-58
2023/04/11 17:21:42;;;;;;;6.37;2.13;;;25.50;23.80;;;;;;20834717;28;20457;-58
2023/04/11 17:31:45;;;;;;;5.93;1.80;;;25.30;24.00;;;;;;20834936;28;20053;-59
2023/04/11 17:41:47;;;;;;;4.00;2.08;;;25.20;24.40;;;;;;20833223;28;20072;-58
2023/04/11 17:51:48;;;;;;;6.43;1.80;;;25.00;23.90;;;;;;20831761;28;20057;-58
2023/04/11 18:01:52;;;;;;;4.30;2.07;;;24.70;25.10;;;;;;20832155;28;20045;-59
2023/04/11 18:11:56;;;;;;;4.05;2.15;;;24.40;26.30;;;;;;20829847;28;20101;-57
2023/04/11 18:21:57;;;;;;;3.30;2.00;;;24.20;27.50;;;;;;20831635;28;20049;-57
2023/04/11 18:32:00;;;;;;;7.53;2.40;;;24.10;28.60;;;;;;20828756;28;20144;-56
2023/04/11 18:42:02;;;;;;;5.63;2.58;;;23.70;29.90;;;;;;20830280;28;20053;-59
2023/04/11 18:52:04;;;;;;;4.68;2.40;;;23.60;31.30;;;;;;20827638;28;20049;-55
2023/04/11 19:02:06;;;;;;;8.27;1.93;;;23.20;32.30;;;;;;20828925;28;20136;-56
2023/04/11 19:12:08;;;;;;;5.30;2.50;;;23.10;32.90;;;;;;20829975;28;20049;-57
2023/04/11 19:22:09;;;;;;;9.03;4.60;;;22.90;33.40;;;;;;20826870;28;20568;-56
2023/04/11 19:32:11;;;;;;;7.38;2.25;;;22.80;34.00;;;;;;20827890;28;20435;-56
2023/04/11 19:42:12;;;;;;;3.20;2.03;;;22.70;34.90;;;;;;20832511;28;20045;-55
2023/04/11 19:52:14;;;;;;;4.88;2.10;;;22.60;35.70;;;;;;20842430;28;20072;-57
2023/04/11 20:02:15;;;;;;;3.75;2.03;;;22.30;36.90;;;;;;20822485;28;20049;-57
2023/04/11 20:12:16;;;;;;;4.05;2.25;;;22.10;37.10;;;;;;20841102;28;20414;-57
2023/04/11 20:22:20;;;;;;;7.43;2.42;;;22.00;36.80;;;;;;20837854;28;20100;-55
2023/04/11 20:32:21;;;;;;;6.95;2.70;;;21.80;36.60;;;;;;20839127;28;20088;-57
2023/04/11 20:42:24;;;;;;;3.08;1.70;;;21.60;36.40;;;;;;20838268;28;20061;-56
2023/04/11 20:52:26;;;;;;;5.55;2.95;;;21.50;36.20;;;;;;20837195;28;20057;-57
2023/04/11 21:02:27;;;;;;;2.17;1.25;;;21.30;36.30;;;;;;20836602;28;20046;-55
2023/04/11 21:12:29;;;;;;;2.97;1.50;;;21.30;36.40;;;;;;20837389;28;20053;-57
2023/04/11 21:22:34;;;;;;;3.10;1.55;;;21.10;36.70;;;;;;20833806;28;20054;-58
2023/04/11 21:32:35;;;;;;;2.88;1.20;;;21.10;36.80;;;;;;20834129;28;20102;-57
2023/04/11 21:42:36;;;;;;;6.10;1.90;;;21.00;36.70;;;;;;20832697;28;20049;-57
2023/04/11 21:52:38;;;;;;;3.90;1.30;;;20.90;36.70;;;;;;20834349;28;20053;-56
2023/04/11 22:02:39;;;;;;;4.75;1.50;;;20.50;37.10;;;;;;20833275;28;20045;-57
2023/04/11 22:12:42;;;;;;;2.80;1.20;;;20.40;37.40;;;;;;20832391;28;20041;-56
2023/04/11 22:22:43;;;;;;;2.35;1.30;;;20.30;37.70;;;;;;20832743;28;20045;-58
2023/04/11 22:32:45;;;;;;;4.30;1.65;;;20.10;38.20;;;;;;20831995;28;20491;-55
2023/04/11 22:42:53;;;;;;;3.03;1.17;;;20.00;38.60;;;;;;20831452;28;20072;-56
2023/04/11 22:52:55;;;;;;;3.40;1.23;;;19.90;38.70;;;;;;20831354;28;20053;-56
2023/04/11 23:02:58;;;;;;;2.38;1.40;;;19.80;39.10;;;;;;20829542;28;20061;-55
2023/04/11 23:13:00;;;;;;;4.65;1.90;;;19.60;39.50;;;;;;20830211;28;20454;-55
2023/04/11 23:23:01;;;;;;;3.88;1.25;;;19.60;39.60;;;;;;20844578;28;20045;-54
2023/04/11 23:33:07;;;;;;;2.80;1.40;;;19.60;39.70;;;;;;20845215;28;20459;-56
2023/04/11 23:43:09;;;;;;;4.32;1.38;;;19.50;40.10;;;;;;20844587;28;20046;-55
2023/04/11 23:53:10;;;;;;;2.22;1.25;;;19.50;40.10;;;;;;20844054;28;20490;-56
